Time;durP1;ratioP1;P1;durP2;ratioP2;P2;SDS_P1;SDS_P2;PMS_P1;PMS_P2;Temp;Humidity;BMP_temperature;BMP_pressure;BME280_temperature;BME280_humidity;BME280_pressure;Samples;Min_cycle;Max_cycle;Signal;HPM_P1;HPM_P2
2023/10/09 00:01:51;;;;;;;23.83;10.18;;;14.40;99.90;;;;;;5000213;28;20047;-70
2023/10/09 00:04:17;;;;;;;30.55;10.63;;;14.40;99.90;;;;;;4982687;28;20025;-71
2023/10/09 00:06:42;;;;;;;27.65;10.77;;;14.40;99.90;;;;;;4983569;28;20498;-71
2023/10/09 00:11:44;;;;;;;22.73;9.73;;;14.40;99.90;;;;;;4997434;28;20600;-70
2023/10/09 00:14:11;;;;;;;24.23;10.32;;;14.40;99.90;;;;;;4996539;28;20045;-71
2023/10/09 00:16:43;;;;;;;24.77;9.90;;;14.40;99.90;;;;;;4982985;28;20030;-71
2023/10/09 00:19:17;;;;;;;26.73;10.48;;;14.40;99.90;;;;;;4998524;28;20454;-71
2023/10/09 00:21:48;;;;;;;29.40;10.35;;;14.40;99.90;;;;;;4996682;28;20045;-71
2023/10/09 00:24:13;;;;;;;;;;;14.40;99.90;;;;;;5000848;28;20030;-71
2023/10/09 00:26:49;;;;;;;24.23;9.70;;;14.40;99.90;;;;;;5001188;28;19991;-71
2023/10/09 00:29:21;;;;;;;21.35;10.27;;;14.40;99.90;;;;;;4978642;28;20041;-70
2023/10/09 00:34:41;;;;;;;18.90;9.13;;;14.40;99.90;;;;;;4996978;28;20689;-71
2023/10/09 00:37:16;;;;;;;21.85;10.65;;;14.50;99.90;;;;;;4997366;28;20038;-73
2023/10/09 00:39:43;;;;;;;20.92;9.48;;;14.50;99.90;;;;;;4979251;28;20045;-72
2023/10/09 00:42:14;;;;;;;21.65;9.02;;;14.50;99.90;;;;;;4978712;28;20048;-70
2023/10/09 00:44:41;;;;;;;26.00;10.20;;;14.50;99.90;;;;;;4981233;28;20037;-70
2023/10/09 00:47:21;;;;;;;27.23;9.93;;;14.50;99.90;;;;;;5001271;28;20042;-71
2023/10/09 00:50:00;;;;;;;20.17;9.02;;;14.50;99.90;;;;;;4982542;28;20422;-71
2023/10/09 00:52:37;;;;;;;20.65;9.55;;;14.50;99.90;;;;;;4978754;28;20179;-71
2023/10/09 00:55:13;;;;;;;19.67;9.40;;;14.50;99.90;;;;;;5000908;28;20056;-72
2023/10/09 00:57:40;;;;;;;23.48;10.02;;;14.50;99.90;;;;;;4979471;28;20048;-72
2023/10/09 01:00:23;;;;;;;24.92;9.18;;;14.50;99.90;;;;;;5001141;28;20066;-72
2023/10/09 01:03:10;;;;;;;21.65;10.02;;;14.50;99.90;;;;;;4971460;28;20459;-72
2023/10/09 01:05:36;;;;;;;23.23;9.50;;;14.50;99.90;;;;;;4995608;28;20072;-71
2023/10/09 01:08:07;;;;;;;20.95;9.32;;;14.50;99.90;;;;;;4981555;28;20054;-70
2023/10/09 01:10:50;;;;;;;19.23;9.00;;;14.60;99.90;;;;;;4978942;28;20112;-71
2023/10/09 01:13:18;;;;;;;21.17;9.25;;;14.60;99.90;;;;;;4982327;28;20065;-72
2023/10/09 01:15:44;;;;;;;20.08;10.05;;;14.60;99.90;;;;;;4993913;28;20049;-72
2023/10/09 01:18:10;;;;;;;24.48;8.70;;;14.60;99.90;;;;;;5003809;28;20538;-72
2023/10/09 01:20:41;;;;;;;20.17;8.82;;;14.60;99.90;;;;;;4977221;28;20124;-72
2023/10/09 01:23:12;;;;;;;23.98;9.57;;;14.70;99.90;;;;;;4996744;28;20499;-70
2023/10/09 01:25:49;;;;;;;20.00;9.02;;;14.70;99.90;;;;;;4996292;28;20112;-71
2023/10/09 01:28:15;;;;;;;18.88;7.88;;;14.70;99.90;;;;;;4991696;28;20206;-70
2023/10/09 01:30:43;;;;;;;19.67;8.50;;;14.60;99.90;;;;;;4979033;28;20040;-71
2023/10/09 01:33:22;;;;;;;15.23;7.72;;;14.70;99.90;;;;;;4982128;28;20033;-71
2023/10/09 01:35:49;;;;;;;19.52;8.88;;;14.70;99.90;;;;;;4977894;28;20410;-70
2023/10/09 01:38:16;;;;;;;15.95;8.15;;;14.70;99.90;;;;;;4995480;28;20470;-72
2023/10/09 01:40:43;;;;;;;23.20;8.77;;;14.80;99.90;;;;;;4998880;28;20061;-72
2023/10/09 01:43:10;;;;;;;20.52;8.38;;;14.80;99.90;;;;;;4982066;28;20493;-70
2023/10/09 01:45:42;;;;;;;20.23;8.23;;;14.80;99.90;;;;;;4996514;28;20491;-71
2023/10/09 01:48:08;;;;;;;18.33;8.13;;;14.80;99.90;;;;;;5004508;28;20073;-72
2023/10/09 01:50:35;;;;;;;15.23;7.93;;;14.80;99.90;;;;;;4978804;28;20034;-70
2023/10/09 01:53:02;;;;;;;16.17;7.10;;;14.80;99.90;;;;;;4981915;28;20038;-70
2023/10/09 01:55:34;;;;;;;19.20;7.63;;;14.80;99.90;;;;;;4976358;28;20487;-70
2023/10/09 01:58:47;;;;;;;13.90;6.97;;;14.80;99.90;;;;;;4996838;28;20093;-71
2023/10/09 02:00:54;;;;;;;14.43;7.45;;;14.80;99.90;;;;;;4985648;28;20034;-70
2023/10/09 02:03:23;;;;;;;15.30;6.85;;;14.80;99.90;;;;;;4997096;28;20034;-70
2023/10/09 02:06:02;;;;;;;18.50;6.88;;;14.80;99.90;;;;;;4996540;28;20037;-72
2023/10/09 02:08:29;;;;;;;18.73;8.07;;;14.80;99.90;;;;;;4976493;28;20049;-70
2023/10/09 02:11:06;;;;;;;15.10;6.97;;;14.80;99.90;;;;;;5067917;28;20037;-71
2023/10/09 02:13:35;;;;;;;16.90;7.25;;;14.90;99.90;;;;;;5044736;28;20033;-71
2023/10/09 02:16:14;;;;;;;16.27;6.85;;;14.90;99.90;;;;;;5063564;28;20047;-71
2023/10/09 02:18:52;;;;;;;17.77;7.32;;;14.90;99.90;;;;;;5045093;28;20107;-71
2023/10/09 02:21:28;;;;;;;15.07;7.32;;;14.90;99.90;;;;;;5044461;28;20845;-73
2023/10/09 02:23:57;;;;;;;16.60;7.70;;;14.90;99.90;;;;;;5045465;28;20060;-72
2023/10/09 02:26:26;;;;;;;18.73;6.45;;;14.90;99.90;;;;;;5061994;28;20052;-72
2023/10/09 02:29:08;;;;;;;13.18;6.47;;;14.90;99.90;;;;;;5063464;28;20123;-71
2023/10/09 02:31:40;;;;;;;18.52;6.57;;;15.00;99.90;;;;;;5043967;28;20037;-73
2023/10/09 02:34:08;;;;;;;16.33;6.50;;;15.00;99.90;;;;;;5044884;28;20045;-71
2023/10/09 02:36:49;;;;;;;12.38;5.72;;;15.00;99.90;;;;;;5043849;28;20114;-71
2023/10/09 02:39:28;;;;;;;14.68;6.78;;;15.00;99.90;;;;;;5055446;28;20036;-72
2023/10/09 02:42:00;;;;;;;12.57;5.70;;;15.10;99.90;;;;;;5062671;28;20132;-72
2023/10/09 02:44:26;;;;;;;11.50;6.03;;;15.10;99.90;;;;;;5060846;28;20021;-71
2023/10/09 02:46:57;;;;;;;14.18;6.00;;;15.10;99.90;;;;;;5043780;28;20040;-72
2023/10/09 02:49:24;;;;;;;14.18;6.05;;;15.10;99.90;;;;;;5042524;28;20040;-71
2023/10/09 02:51:53;;;;;;;10.23;5.13;;;15.10;99.90;;;;;;5062709;28;20021;-71
2023/10/09 02:56:55;;;;;;;17.70;6.38;;;15.00;99.90;;;;;;5062821;28;20043;-72
2023/10/09 02:59:21;;;;;;;13.45;5.90;;;15.00;99.90;;;;;;5043317;28;20041;-71
2023/10/09 03:01:48;;;;;;;12.63;5.45;;;15.00;99.90;;;;;;5043753;28;20056;-71
2023/10/09 03:04:15;;;;;;;12.27;5.93;;;15.00;99.90;;;;;;5043612;28;20570;-72
2023/10/09 03:06:49;;;;;;;13.63;5.22;;;15.00;99.90;;;;;;5044291;28;20033;-71
2023/10/09 03:09:26;;;;;;;11.15;5.55;;;15.10;99.90;;;;;;5061535;28;20065;-72
2023/10/09 03:12:00;;;;;;;17.65;6.10;;;15.10;99.90;;;;;;5043803;28;20047;-72
2023/10/09 03:14:26;;;;;;;11.25;4.82;;;15.10;99.90;;;;;;5061174;28;20131;-72
2023/10/09 03:16:53;;;;;;;12.90;5.32;;;15.10;99.90;;;;;;5062178;28;20035;-71
2023/10/09 03:19:18;;;;;;;11.10;5.00;;;15.10;99.90;;;;;;5060999;28;20174;-73
2023/10/09 03:21:44;;;;;;;15.15;5.18;;;15.10;99.90;;;;;;5034293;28;20585;-72
2023/10/09 03:24:11;;;;;;;12.45;5.38;;;15.10;99.90;;;;;;5030599;28;20570;-71
2023/10/09 03:26:37;;;;;;;12.23;5.35;;;15.20;99.90;;;;;;5047653;28;20163;-72
2023/10/09 03:29:06;;;;;;;11.52;5.50;;;15.20;99.90;;;;;;5030961;28;20116;-71
2023/10/09 03:31:33;;;;;;;13.57;5.07;;;15.20;99.90;;;;;;5047658;28;20493;-71
2023/10/09 03:34:02;;;;;;;13.05;5.32;;;15.20;99.90;;;;;;5030463;28;20538;-72
2023/10/09 03:36:29;;;;;;;10.63;4.88;;;15.20;99.90;;;;;;5043955;28;20374;-71
2023/10/09 03:38:57;;;;;;;11.82;4.80;;;15.30;99.90;;;;;;5052719;28;20073;-72
2023/10/09 03:41:26;;;;;;;12.63;5.20;;;15.30;99.90;;;;;;5048393;28;20025;-71
2023/10/09 03:43:51;;;;;;;9.23;4.45;;;15.30;99.90;;;;;;5048789;28;20040;-71
2023/10/09 03:46:21;;;;;;;15.40;5.60;;;15.20;99.90;;;;;;5047207;28;20033;-71
2023/10/09 03:48:48;;;;;;;9.73;4.97;;;15.30;99.90;;;;;;5030481;28;20025;-71
2023/10/09 03:51:21;;;;;;;10.68;4.90;;;15.30;99.90;;;;;;5029822;28;20025;-73
2023/10/09 03:53:50;;;;;;;10.05;4.30;;;15.30;99.90;;;;;;5047583;28;20470;-71
2023/10/09 03:56:17;;;;;;;10.37;4.90;;;15.30;99.90;;;;;;5029539;28;20044;-72
2023/10/09 03:58:48;;;;;;;11.40;4.82;;;15.30;99.90;;;;;;5029963;28;20347;-72
2023/10/09 04:01:28;;;;;;;8.77;4.57;;;15.30;99.90;;;;;;5028893;28;20167;-73
2023/10/09 04:04:00;;;;;;;10.80;4.57;;;15.30;99.90;;;;;;5029791;28;20382;-71
2023/10/09 04:06:33;;;;;;;11.13;4.22;;;15.30;99.90;;;;;;5047019;28;20033;-71
2023/10/09 04:09:28;;;;;;;12.63;5.00;;;15.30;99.90;;;;;;5047906;28;20041;-73
2023/10/09 04:11:47;;;;;;;9.50;4.32;;;15.30;99.90;;;;;;5041031;28;20091;-70
2023/10/09 04:14:26;;;;;;;12.07;4.20;;;15.30;99.90;;;;;;5029451;28;20107;-73
2023/10/09 04:17:03;;;;;;;8.43;4.00;;;15.30;99.90;;;;;;5029707;28;20441;-70
2023/10/09 04:19:29;;;;;;;12.35;5.20;;;15.20;99.90;;;;;;5029302;28;20489;-72
2023/10/09 04:21:58;;;;;;;10.45;4.47;;;15.20;99.90;;;;;;5047513;28;20041;-71
2023/10/09 04:24:23;;;;;;;13.15;4.78;;;15.20;99.90;;;;;;5028694;28;20112;-73
2023/10/09 04:26:55;;;;;;;10.52;4.28;;;15.20;99.90;;;;;;5047655;28;20120;-71
2023/10/09 04:29:38;;;;;;;12.63;4.97;;;15.30;99.90;;;;;;5046304;28;20061;-70
2023/10/09 04:32:07;;;;;;;8.73;4.82;;;15.30;99.90;;;;;;5042399;28;20036;-71
2023/10/09 04:34:38;;;;;;;9.95;4.88;;;15.30;99.90;;;;;;5027747;28;20036;-71
2023/10/09 04:40:41;;;;;;;16.17;4.47;;;15.30;99.90;;;;;;4972263;28;20050;-72
2023/10/09 04:43:05;;;;;;;8.25;4.13;;;15.40;99.90;;;;;;4964534;28;20093;-70
2023/10/09 04:48:09;;;;;;;11.90;4.15;;;15.40;99.90;;;;;;5042784;28;20112;-72
2023/10/09 04:55:44;;;;;;;9.95;4.20;;;15.40;99.90;;;;;;5043736;28;20052;-71
2023/10/09 04:58:13;;;;;;;20.73;4.88;;;15.40;99.90;;;;;;5046696;28;20041;-72
2023/10/09 05:05:58;;;;;;;11.73;3.92;;;15.50;99.90;;;;;;5050112;28;20041;-71
2023/10/09 05:16:04;;;;;;;12.02;4.45;;;15.60;99.90;;;;;;5044319;28;20682;-71
2023/10/09 05:18:37;;;;;;;10.82;3.88;;;15.50;99.90;;;;;;5031897;28;20037;-72
2023/10/09 05:23:44;;;;;;;8.25;3.78;;;15.50;99.90;;;;;;5044880;28;20086;-71
2023/10/09 05:28:58;;;;;;;10.27;4.07;;;15.60;99.90;;;;;;5045725;28;20763;-71
2023/10/09 05:34:08;;;;;;;11.05;4.30;;;15.50;99.90;;;;;;5049972;28;20500;-71
2023/10/09 05:36:35;;;;;;;11.30;3.92;;;15.50;99.90;;;;;;5047316;28;20040;-71
2023/10/09 05:41:59;;;;;;;8.38;3.60;;;15.60;99.90;;;;;;5004723;28;20045;-70
2023/10/09 06:03:25;;;;;;;9.23;3.72;;;15.60;99.90;;;;;;5050849;28;20087;-70
2023/10/09 06:19:08;;;;;;;14.82;4.20;;;15.80;99.90;;;;;;5047166;28;20516;-71
2023/10/09 06:24:18;;;;;;;10.45;3.92;;;15.80;99.90;;;;;;5042729;28;20033;-70
2023/10/09 06:29:50;;;;;;;11.18;3.47;;;15.80;99.90;;;;;;5044083;28;20574;-71
2023/10/09 06:34:51;;;;;;;11.52;3.90;;;15.90;99.90;;;;;;5048498;28;20388;-71
2023/10/09 06:37:19;;;;;;;10.30;4.15;;;15.90;99.90;;;;;;5039145;28;20587;-72
2023/10/09 06:41:17;;;;;;;8.13;3.67;;;15.90;99.90;;;;;;5052119;28;20033;-72
2023/10/09 06:45:09;;;;;;;5.32;2.90;;;15.90;99.90;;;;;;5046694;28;20029;-71
2023/10/09 06:47:41;;;;;;;11.93;3.45;;;15.90;99.90;;;;;;5034119;28;20040;-70
2023/10/09 06:56:01;;;;;;;7.65;3.30;;;16.00;99.90;;;;;;5039508;28;20695;-72
2023/10/09 06:58:27;;;;;;;15.77;4.47;;;16.00;99.90;;;;;;5050013;28;20572;-71
2023/10/09 07:03:52;;;;;;;7.78;3.65;;;16.00;99.90;;;;;;5046679;28;20036;-72
2023/10/09 07:06:47;;;;;;;6.20;2.97;;;16.00;99.90;;;;;;5039061;28;20045;-72
2023/10/09 07:27:44;;;;;;;8.45;3.75;;;16.20;99.90;;;;;;5045634;28;20058;-71
2023/10/09 07:33:16;;;;;;;9.82;4.18;;;16.20;99.90;;;;;;5051038;28;20630;-72
2023/10/09 07:38:21;;;;;;;9.70;4.22;;;16.30;99.90;;;;;;5044989;28;20041;-71
2023/10/09 07:43:45;;;;;;;10.45;3.65;;;16.30;99.90;;;;;;5054325;28;20040;-70
2023/10/09 07:46:30;;;;;;;15.48;4.18;;;16.40;99.90;;;;;;5037279;28;20129;-71
2023/10/09 07:48:56;;;;;;;13.90;4.25;;;16.50;99.90;;;;;;5045066;28;20029;-72
2023/10/09 07:51:30;;;;;;;9.68;4.07;;;16.60;99.90;;;;;;5040472;28;20048;-70
2023/10/09 07:53:57;;;;;;;10.57;3.60;;;16.70;99.90;;;;;;5041215;28;20509;-72
2023/10/09 07:56:30;;;;;;;11.85;3.50;;;16.80;99.90;;;;;;5033994;28;20037;-72
2023/10/09 07:59:00;;;;;;;13.65;3.38;;;16.90;99.90;;;;;;5032149;28;20531;-72
2023/10/09 08:04:01;;;;;;;8.43;3.90;;;16.90;99.90;;;;;;5045520;28;20100;-72
2023/10/09 08:06:39;;;;;;;11.98;3.80;;;16.90;99.90;;;;;;5035021;28;20039;-72
2023/10/09 08:12:13;;;;;;;6.60;3.20;;;16.90;99.90;;;;;;5042925;28;20578;-72
2023/10/09 08:14:45;;;;;;;17.88;4.20;;;16.90;99.90;;;;;;5036588;28;20572;-72
2023/10/09 08:17:13;;;;;;;7.75;3.10;;;17.00;99.90;;;;;;5043517;28;20433;-72
2023/10/09 08:19:57;;;;;;;7.90;3.38;;;17.10;99.90;;;;;;5045405;28;20036;-70
2023/10/09 08:24:56;;;;;;;8.82;3.50;;;17.20;99.90;;;;;;5050136;28;20091;-72
2023/10/09 08:33:00;;;;;;;9.55;3.20;;;17.40;99.90;;;;;;5042323;28;20033;-72
2023/10/09 08:35:32;;;;;;;9.13;3.20;;;17.40;99.90;;;;;;5036818;28;20036;-72
2023/10/09 08:38:08;;;;;;;12.98;3.25;;;17.50;99.90;;;;;;5039961;28;20042;-72
2023/10/09 08:40:42;;;;;;;7.00;3.45;;;17.50;99.90;;;;;;5038084;28;20132;-72
2023/10/09 08:43:16;;;;;;;9.25;3.45;;;17.60;99.90;;;;;;5046703;28;20591;-72
2023/10/09 08:45:45;;;;;;;5.40;2.80;;;17.70;99.90;;;;;;5034179;28;20041;-72
2023/10/09 08:48:21;;;;;;;10.53;4.30;;;17.70;99.90;;;;;;5033940;28;20156;-73
2023/10/09 08:50:54;;;;;;;8.38;2.65;;;17.80;99.90;;;;;;5037188;28;20044;-71
2023/10/09 08:53:21;;;;;;;6.20;2.65;;;17.90;99.90;;;;;;5036139;28;20033;-72
2023/10/09 08:55:47;;;;;;;6.43;3.25;;;18.00;99.90;;;;;;5036140;28;20040;-72
2023/10/09 08:58:20;;;;;;;11.20;3.10;;;18.20;99.90;;;;;;5034963;28;20047;-72
2023/10/09 09:00:46;;;;;;;10.43;2.85;;;18.30;99.90;;;;;;5035033;28;20032;-72
2023/10/09 09:03:17;;;;;;;8.00;2.88;;;18.40;99.90;;;;;;5037762;28;20041;-71
2023/10/09 09:05:49;;;;;;;5.78;2.45;;;18.60;99.90;;;;;;5034140;28;20041;-71
2023/10/09 09:08:28;;;;;;;13.98;3.00;;;18.60;99.90;;;;;;5030075;28;20029;-74
2023/10/09 09:11:11;;;;;;;5.40;2.25;;;18.70;99.90;;;;;;5030560;28;20050;-72
2023/10/09 09:13:48;;;;;;;6.13;2.00;;;18.90;99.90;;;;;;5050544;28;20128;-72
2023/10/09 09:16:30;;;;;;;12.73;2.60;;;18.90;99.90;;;;;;5032451;28;20325;-73
2023/10/09 09:21:40;;;;;;;8.57;3.67;;;18.90;99.90;;;;;;5050034;28;20040;-70
2023/10/09 09:29:37;;;;;;;7.07;2.13;;;19.10;99.90;;;;;;5042508;28;20055;-71
2023/10/09 09:32:16;;;;;;;7.60;2.45;;;19.10;99.90;;;;;;5038733;28;20044;-72
2023/10/09 09:34:49;;;;;;;9.75;2.63;;;19.20;99.90;;;;;;5037814;28;20098;-71
2023/10/09 09:37:51;;;;;;;6.15;2.30;;;19.30;99.90;;;;;;5034456;28;20436;-74
2023/10/09 09:40:27;;;;;;;11.00;3.10;;;19.40;99.90;;;;;;5042421;28;20033;-70
2023/10/09 09:43:05;;;;;;;9.13;1.98;;;19.40;99.90;;;;;;5037743;28;20097;-71
2023/10/09 09:45:33;;;;;;;5.97;2.45;;;19.40;99.90;;;;;;5033698;28;20144;-73
2023/10/09 09:48:15;;;;;;;8.52;1.98;;;19.40;99.90;;;;;;5043859;28;20570;-70
2023/10/09 09:50:45;;;;;;;10.95;2.33;;;19.40;99.90;;;;;;5031475;28;20445;-72
2023/10/09 09:53:16;;;;;;;6.90;2.25;;;19.40;99.90;;;;;;5049677;28;20059;-72
2023/10/09 09:55:59;;;;;;;11.75;2.33;;;19.40;99.90;;;;;;5045352;28;20060;-71
2023/10/09 09:58:32;;;;;;;8.70;2.30;;;19.40;99.90;;;;;;5036827;28;20064;-72
2023/10/09 10:01:08;;;;;;;12.88;2.28;;;19.40;99.90;;;;;;5033081;28;20052;-71
2023/10/09 10:03:43;;;;;;;8.43;2.30;;;19.40;99.90;;;;;;5044937;28;21951;-72
2023/10/09 10:06:12;;;;;;;9.18;2.30;;;19.50;99.90;;;;;;5031379;28;20043;-72
2023/10/09 10:08:39;;;;;;;7.18;2.97;;;19.50;99.90;;;;;;5054054;28;20029;-72
2023/10/09 10:11:05;;;;;;;6.70;2.20;;;19.50;99.90;;;;;;5033826;28;20055;-72
2023/10/09 10:13:43;;;;;;;9.23;1.95;;;19.50;99.90;;;;;;5028449;28;20040;-70
2023/10/09 10:16:55;;;;;;;9.30;2.42;;;19.60;99.90;;;;;;5046816;28;20090;-71
2023/10/09 10:18:59;;;;;;;5.53;2.15;;;19.70;99.90;;;;;;5035050;28;20113;-72
2023/10/09 10:24:22;;;;;;;6.80;2.92;;;19.90;99.90;;;;;;5052914;28;20072;-72
2023/10/09 10:27:31;;;;;;;3.97;1.80;;;19.90;99.90;;;;;;5045150;28;20033;-72
2023/10/09 10:30:33;;;;;;;8.63;2.35;;;20.00;99.90;;;;;;5036269;28;20037;-71
2023/10/09 10:33:09;;;;;;;10.40;2.40;;;20.10;99.90;;;;;;5045431;28;20115;-70
2023/10/09 10:35:45;;;;;;;4.53;1.98;;;20.10;99.90;;;;;;5035049;28;20036;-72
2023/10/09 10:38:36;;;;;;;6.05;2.28;;;20.10;99.90;;;;;;5048660;28;20094;-72
2023/10/09 10:41:16;;;;;;;6.05;1.98;;;20.20;99.90;;;;;;5047473;28;20068;-72
2023/10/09 10:46:37;;;;;;;8.63;2.55;;;20.40;99.90;;;;;;5046244;28;20047;-72
2023/10/09 10:49:15;;;;;;;11.20;2.25;;;20.40;99.90;;;;;;5050391;28;20659;-71
2023/10/09 10:51:47;;;;;;;6.50;2.05;;;20.40;99.90;;;;;;5033896;28;20025;-70
2023/10/09 10:56:59;;;;;;;9.07;2.35;;;20.40;99.90;;;;;;5052287;28;20502;-71
2023/10/09 10:59:36;;;;;;;4.95;1.65;;;20.40;99.90;;;;;;5051350;28;20466;-71
2023/10/09 11:04:45;;;;;;;5.00;1.95;;;20.40;99.90;;;;;;5044599;28;20033;-70
2023/10/09 11:07:24;;;;;;;5.90;1.88;;;20.40;99.90;;;;;;5038661;28;20039;-70
2023/10/09 11:15:57;;;;;;;5.38;1.92;;;20.30;99.90;;;;;;5043866;28;20040;-70
2023/10/09 11:18:27;;;;;;;5.15;1.80;;;20.30;99.90;;;;;;5044251;28;20037;-71
2023/10/09 11:28:56;;;;;;;8.52;2.03;;;20.40;99.90;;;;;;5044987;28;20110;-71
2023/10/09 11:31:22;;;;;;;5.45;1.70;;;20.50;99.90;;;;;;5034255;28;20697;-72
2023/10/09 11:33:51;;;;;;;5.93;2.00;;;20.50;99.90;;;;;;5044892;28;20124;-72
2023/10/09 11:36:17;;;;;;;7.18;1.77;;;20.50;99.90;;;;;;5039384;28;20087;-72
2023/10/09 11:38:45;;;;;;;8.32;2.17;;;20.50;99.90;;;;;;5052576;28;20035;-72
2023/10/09 11:41:19;;;;;;;6.78;1.90;;;20.50;99.90;;;;;;5036017;28;20033;-72
2023/10/09 11:43:51;;;;;;;5.50;2.22;;;20.50;99.90;;;;;;5047810;28;20083;-71
2023/10/09 11:46:48;;;;;;;4.95;1.85;;;20.50;99.90;;;;;;5029123;28;20029;-73
2023/10/09 11:49:25;;;;;;;7.95;2.17;;;20.60;99.90;;;;;;5033189;28;20616;-72
2023/10/09 11:54:35;;;;;;;6.50;1.83;;;20.60;99.90;;;;;;5052146;28;20029;-72
2023/10/09 11:57:01;;;;;;;8.13;2.22;;;20.70;99.90;;;;;;5051642;28;20087;-72
2023/10/09 11:59:37;;;;;;;14.82;3.00;;;20.70;99.90;;;;;;5039717;28;20151;-72
2023/10/09 12:02:12;;;;;;;6.57;2.08;;;20.60;99.90;;;;;;5036032;28;20569;-72
2023/10/09 12:04:44;;;;;;;6.75;2.38;;;20.70;99.90;;;;;;5050258;28;20037;-73
2023/10/09 12:07:10;;;;;;;5.13;1.85;;;20.60;99.90;;;;;;5039262;28;20052;-71
2023/10/09 12:09:37;;;;;;;6.65;2.40;;;20.60;99.90;;;;;;5036964;28;20087;-71
2023/10/09 12:12:05;;;;;;;5.72;2.22;;;20.60;99.90;;;;;;5052664;28;20037;-71
2023/10/09 12:14:34;;;;;;;6.25;2.30;;;20.70;99.90;;;;;;5041330;28;20043;-73
2023/10/09 12:17:05;;;;;;;11.68;2.72;;;20.70;99.90;;;;;;5051796;28;20037;-72
2023/10/09 12:19:33;;;;;;;6.25;2.33;;;20.60;99.90;;;;;;5047654;28;20039;-72
2023/10/09 12:22:00;;;;;;;4.55;1.70;;;20.60;99.90;;;;;;5034363;28;20040;-72
2023/10/09 12:24:29;;;;;;;3.72;1.90;;;20.50;99.90;;;;;;5053957;28;20426;-72
2023/10/09 12:26:54;;;;;;;11.50;3.08;;;20.50;99.90;;;;;;5037860;28;20040;-72
2023/10/09 12:29:20;;;;;;;5.95;1.85;;;20.40;99.90;;;;;;5032174;28;20048;-72
2023/10/09 12:31:46;;;;;;;10.82;1.80;;;20.50;99.90;;;;;;5050680;28;20060;-72
2023/10/09 12:34:16;;;;;;;13.25;2.67;;;20.40;99.90;;;;;;5038112;28;20025;-71
2023/10/09 12:36:44;;;;;;;8.52;1.95;;;20.30;99.90;;;;;;5028746;28;20032;-72
2023/10/09 12:39:17;;;;;;;9.52;2.80;;;20.30;99.90;;;;;;5036542;28;20047;-72
2023/10/09 12:41:44;;;;;;;10.85;2.70;;;20.40;99.90;;;;;;5033612;28;20040;-72
2023/10/09 12:44:18;;;;;;;8.18;2.08;;;20.40;99.90;;;;;;5043881;28;20043;-73
2023/10/09 12:46:54;;;;;;;10.50;2.45;;;20.30;99.90;;;;;;5045231;28;20033;-71
2023/10/09 12:49:24;;;;;;;5.18;1.63;;;20.30;99.90;;;;;;5050343;28;20397;-72
2023/10/09 12:51:53;;;;;;;7.15;2.22;;;20.40;99.90;;;;;;5035647;28;20029;-72
2023/10/09 12:54:30;;;;;;;6.88;2.08;;;20.30;99.90;;;;;;5047519;28;20109;-72
2023/10/09 12:56:57;;;;;;;7.75;2.05;;;20.20;99.90;;;;;;5052532;28;20025;-73
2023/10/09 12:59:24;;;;;;;8.32;2.45;;;20.20;99.90;;;;;;5038402;28;20036;-72
2023/10/09 13:01:52;;;;;;;6.15;2.35;;;20.20;99.90;;;;;;5050940;28;20041;-72
2023/10/09 13:04:22;;;;;;;9.45;2.20;;;20.30;99.90;;;;;;5052016;28;20413;-73
2023/10/09 13:06:51;;;;;;;11.63;2.72;;;20.20;99.90;;;;;;5046429;28;20055;-72
2023/10/09 13:09:42;;;;;;;6.65;2.03;;;20.30;99.90;;;;;;5032832;28;20370;-73
2023/10/09 13:12:09;;;;;;;5.35;1.70;;;20.30;99.90;;;;;;5051911;28;20032;-70
2023/10/09 13:14:35;;;;;;;7.15;2.15;;;20.30;99.90;;;;;;5033662;28;20397;-71
2023/10/09 13:17:08;;;;;;;7.30;2.00;;;20.30;99.90;;;;;;5038253;28;20519;-72
2023/10/09 13:19:34;;;;;;;7.45;2.17;;;20.30;99.90;;;;;;5036373;28;22077;-72
2023/10/09 13:22:03;;;;;;;6.57;2.65;;;20.40;99.90;;;;;;5048989;28;20511;-72
2023/10/09 13:24:29;;;;;;;7.07;1.80;;;20.30;99.90;;;;;;5051297;28;20109;-70
2023/10/09 13:26:58;;;;;;;10.07;1.95;;;20.30;99.90;;;;;;5036981;28;20071;-72
2023/10/09 13:29:24;;;;;;;5.80;2.22;;;20.30;99.90;;;;;;5047132;28;20051;-70
2023/10/09 13:31:52;;;;;;;13.25;2.70;;;20.20;99.90;;;;;;5055044;28;20029;-72
2023/10/09 13:34:18;;;;;;;5.75;2.22;;;20.20;99.90;;;;;;5034590;28;20041;-71
2023/10/09 13:36:53;;;;;;;8.80;2.30;;;20.10;99.90;;;;;;5048397;28;20029;-70
2023/10/09 13:39:24;;;;;;;5.95;2.28;;;20.10;99.90;;;;;;5046101;28;20060;-71
2023/10/09 13:41:58;;;;;;;4.72;1.80;;;20.10;99.90;;;;;;5051045;28;20094;-72
2023/10/09 13:44:28;;;;;;;6.15;2.58;;;20.10;99.90;;;;;;5031272;28;20447;-72
2023/10/09 13:46:58;;;;;;;11.15;2.28;;;20.10;99.90;;;;;;5048545;28;20028;-72
2023/10/09 13:49:29;;;;;;;9.30;2.72;;;20.10;99.90;;;;;;5029974;28;20036;-72
2023/10/09 13:51:56;;;;;;;11.95;2.70;;;20.10;99.90;;;;;;5045094;28;20649;-72
2023/10/09 13:54:39;;;;;;;7.65;1.85;;;20.20;99.90;;;;;;5036324;28;20035;-72
2023/10/09 13:57:06;;;;;;;7.65;2.63;;;20.10;99.90;;;;;;5029143;28;20029;-72
2023/10/09 13:59:36;;;;;;;6.55;2.40;;;20.10;99.90;;;;;;5032768;28;20106;-71
2023/10/09 14:02:08;;;;;;;6.57;1.80;;;20.20;99.90;;;;;;5035150;28;20115;-72
2023/10/09 14:04:34;;;;;;;9.38;3.47;;;20.10;99.90;;;;;;5030178;28;20036;-71
2023/10/09 14:07:01;;;;;;;6.47;2.40;;;20.20;99.90;;;;;;5033353;28;20079;-71
2023/10/09 14:09:30;;;;;;;7.70;1.90;;;20.20;99.90;;;;;;5044948;28;20033;-72
2023/10/09 14:12:10;;;;;;;9.32;2.40;;;20.20;99.90;;;;;;5036478;28;20123;-72
2023/10/09 14:14:48;;;;;;;8.35;2.90;;;20.20;99.90;;;;;;5045654;28;20919;-72
2023/10/09 14:17:25;;;;;;;9.02;1.67;;;20.30;99.90;;;;;;5048876;28;20033;-72
2023/10/09 14:19:52;;;;;;;7.95;1.75;;;20.30;99.90;;;;;;5047936;28;20052;-71
2023/10/09 14:22:26;;;;;;;5.25;2.42;;;20.30;99.90;;;;;;5046490;28;20029;-72
2023/10/09 14:24:55;;;;;;;8.45;2.05;;;20.30;99.90;;;;;;5045108;28;20099;-70
2023/10/09 14:27:26;;;;;;;4.95;2.15;;;20.40;99.90;;;;;;5028278;28;20706;-74
2023/10/09 14:29:59;;;;;;;10.32;2.42;;;20.40;99.90;;;;;;5035776;28;20036;-70
2023/10/09 14:32:28;;;;;;;9.80;2.45;;;20.40;99.90;;;;;;5048906;28;20021;-72
2023/10/09 14:35:00;;;;;;;8.80;2.67;;;20.40;99.90;;;;;;5032723;28;20032;-72
2023/10/09 14:37:27;;;;;;;8.25;2.10;;;20.40;99.90;;;;;;5042826;28;20029;-71
2023/10/09 14:39:55;;;;;;;6.45;2.15;;;20.40;99.90;;;;;;5033493;28;20051;-72
2023/10/09 14:42:22;;;;;;;6.55;2.13;;;20.30;99.90;;;;;;5029468;28;20469;-72
2023/10/09 14:44:49;;;;;;;8.13;1.75;;;20.40;99.90;;;;;;5044774;28;20494;-72
2023/10/09 14:47:16;;;;;;;8.20;2.35;;;20.40;99.90;;;;;;5048831;28;20059;-72
2023/10/09 14:49:46;;;;;;;7.55;2.47;;;20.30;99.90;;;;;;5031841;28;20043;-71
2023/10/09 14:52:16;;;;;;;16.35;2.30;;;20.30;99.90;;;;;;5045428;28;20182;-71
2023/10/09 14:54:45;;;;;;;;;;;20.20;99.90;;;;;;5036300;28;20120;-70
2023/10/09 14:57:14;;;;;;;12.55;2.63;;;20.20;99.90;;;;;;5046854;28;20388;-71
2023/10/09 14:59:40;;;;;;;6.53;2.60;;;20.20;99.90;;;;;;5048223;28;20029;-72
2023/10/09 15:02:07;;;;;;;7.68;2.53;;;20.10;99.90;;;;;;5044546;28;20040;-72
2023/10/09 15:04:35;;;;;;;8.73;2.10;;;20.10;99.90;;;;;;5042527;28;20085;-72
2023/10/09 15:07:01;;;;;;;7.65;1.83;;;20.00;99.90;;;;;;5043662;28;20064;-72
2023/10/09 15:09:31;;;;;;;5.45;1.90;;;19.90;99.90;;;;;;5047002;28;20060;-72
2023/10/09 15:11:57;;;;;;;12.87;2.40;;;19.90;99.90;;;;;;5052325;28;20155;-72
2023/10/09 15:14:23;;;;;;;8.35;2.28;;;19.90;99.90;;;;;;5035196;28;20297;-72
2023/10/09 15:16:49;;;;;;;9.52;2.42;;;19.90;99.90;;;;;;5048022;28;20441;-72
2023/10/09 15:19:16;;;;;;;9.43;2.10;;;19.80;99.90;;;;;;5050186;28;20033;-70
2023/10/09 15:21:43;;;;;;;4.28;2.05;;;19.80;99.90;;;;;;5041486;28;20024;-72
2023/10/09 15:24:21;;;;;;;10.35;2.22;;;19.80;99.90;;;;;;5050819;28;20037;-70
2023/10/09 15:26:52;;;;;;;6.13;2.58;;;19.80;99.90;;;;;;5035181;28;20086;-73
2023/10/09 15:29:19;;;;;;;12.05;2.78;;;19.80;99.90;;;;;;5031701;28;20039;-72
2023/10/09 15:31:46;;;;;;;8.40;3.22;;;19.80;99.90;;;;;;5050049;28;20036;-72
2023/10/09 15:34:12;;;;;;;14.57;2.38;;;19.80;99.90;;;;;;5047771;28;20442;-72
2023/10/09 15:36:39;;;;;;;21.45;2.63;;;19.80;99.90;;;;;;5029209;28;20108;-72
2023/10/09 15:39:07;;;;;;;10.00;2.78;;;19.80;99.90;;;;;;5048529;28;20536;-72
2023/10/09 15:41:34;;;;;;;10.55;2.85;;;19.70;99.90;;;;;;5025625;28;20456;-71
2023/10/09 15:44:01;;;;;;;7.80;2.78;;;19.70;99.90;;;;;;5046259;28;20029;-71
2023/10/09 15:46:27;;;;;;;7.68;2.42;;;19.60;99.90;;;;;;5045771;28;20641;-72
2023/10/09 15:48:53;;;;;;;7.80;2.55;;;19.60;99.90;;;;;;5029486;28;20044;-72
2023/10/09 15:51:19;;;;;;;8.00;2.40;;;19.60;99.90;;;;;;5045019;28;20489;-72
2023/10/09 15:53:46;;;;;;;11.80;3.15;;;19.50;99.90;;;;;;5029084;28;20052;-72
2023/10/09 15:56:13;;;;;;;10.93;2.80;;;19.50;99.90;;;;;;5046861;28;20032;-72